Time;durP1;ratioP1;P1;durP2;ratioP2;P2;SDS_P1;SDS_P2;PMS_P1;PMS_P2;Temp;Humidity;BMP_temperature;BMP_pressure;BME280_temperature;BME280_humidity;BME280_pressure;Samples;Min_cycle;Max_cycle;Signal;HPM_P1;HPM_P2
2021/12/04 00:00:22;;;;;;;12.48;10.75;;;;;;;3.15;100.00;99959.78;5090843;28;20111;-85
2021/12/04 00:02:51;;;;;;;13.65;10.98;;;;;;;3.19;100.00;99966.47;5090624;28;20020;-85
2021/12/04 00:05:18;;;;;;;16.48;10.93;;;;;;;3.20;100.00;99962.94;5088840;28;20039;-85
2021/12/04 00:07:43;;;;;;;13.10;11.18;;;;;;;3.19;100.00;99950.03;5090209;28;20491;-85
2021/12/04 00:10:13;;;;;;;15.25;11.70;;;;;;;3.22;100.00;99948.13;5090658;28;20032;-85
2021/12/04 00:12:38;;;;;;;14.57;11.23;;;;;;;3.23;100.00;99943.78;5089970;28;20028;-85
2021/12/04 00:15:04;;;;;;;17.58;12.05;;;;;;;3.24;100.00;99935.03;5090317;28;20032;-85
2021/12/04 00:17:30;;;;;;;12.90;11.40;;;;;;;3.18;100.00;99917.19;5090045;28;20525;-84
2021/12/04 00:19:55;;;;;;;14.65;11.27;;;;;;;3.17;100.00;99911.16;5089337;28;20463;-85
2021/12/04 00:22:21;;;;;;;12.70;11.48;;;;;;;3.21;100.00;99912.66;5083590;28;20526;-85
2021/12/04 00:24:46;;;;;;;13.00;11.05;;;;;;;3.17;100.00;99900.75;5089592;28;20647;-84
2021/12/04 00:27:15;;;;;;;12.57;11.20;;;;;;;3.22;100.00;99916.09;5090445;28;20027;-85
2021/12/04 00:29:40;;;;;;;11.90;10.70;;;;;;;3.20;100.00;99910.13;5090590;28;20085;-85
2021/12/04 00:32:54;;;;;;;13.10;11.63;;;;;;;3.17;100.00;99910.31;5088793;28;20056;-85
2021/12/04 00:35:34;;;;;;;12.07;10.13;;;;;;;3.24;100.00;99927.25;5084147;28;20031;-85
2021/12/04 00:43:14;;;;;;;12.23;10.43;;;;;;;3.25;100.00;99924.56;5086662;28;20052;-85
2021/12/04 00:49:09;;;;;;;13.80;10.48;;;;;;;3.18;100.00;99883.41;5089314;28;20032;-83
2021/12/04 00:51:46;;;;;;;11.77;10.60;;;;;;;3.26;100.00;99891.59;5088955;28;20367;-83
2021/12/04 00:54:14;;;;;;;12.68;10.90;;;;;;;3.26;100.00;99896.81;5088908;28;20027;-83
2021/12/04 00:56:41;;;;;;;11.20;10.07;;;;;;;3.24;100.00;99891.69;5076707;28;20048;-83
2021/12/04 00:59:07;;;;;;;12.75;10.52;;;;;;;3.28;100.00;99892.34;5069101;28;20028;-83
2021/12/04 01:01:36;;;;;;;13.75;10.88;;;;;;;3.26;100.00;99895.03;5068161;28;20024;-84
2021/12/04 01:04:01;;;;;;;13.35;11.05;;;;;;;3.27;100.00;99895.88;5069022;28;20813;-84
2021/12/04 01:06:27;;;;;;;11.93;10.68;;;;;;;3.29;100.00;99899.22;5068932;28;20020;-84
2021/12/04 01:08:52;;;;;;;11.73;10.52;;;;;;;3.29;100.00;99892.25;5087347;28;20108;-85
2021/12/04 01:11:17;;;;;;;13.13;10.48;;;;;;;3.23;100.00;99889.19;5088785;28;20136;-85
2021/12/04 01:13:43;;;;;;;12.38;10.57;;;;;;;3.31;100.00;99905.16;5082901;28;20113;-84
2021/12/04 01:16:11;;;;;;;12.05;10.82;;;;;;;3.30;100.00;99906.09;5088452;28;20107;-84
2021/12/04 01:18:37;;;;;;;12.35;10.90;;;;;;;3.30;100.00;99906.91;5086725;28;20070;-85
2021/12/04 01:21:02;;;;;;;11.82;10.63;;;;;;;3.31;100.00;99902.56;5087077;28;20024;-85
2021/12/04 01:23:28;;;;;;;13.07;10.70;;;;;;;3.32;100.00;99894.66;5089105;28;20027;-85
2021/12/04 01:25:53;;;;;;;11.65;10.45;;;;;;;3.31;100.00;99892.16;5089408;28;20069;-84
2021/12/04 01:28:18;;;;;;;12.80;10.05;;;;;;;3.32;100.00;99899.88;5088550;28;20054;-85
2021/12/04 01:30:44;;;;;;;16.00;9.85;;;;;;;3.33;100.00;99890.31;5082578;28;20393;-85
2021/12/04 01:33:09;;;;;;;10.98;9.88;;;;;;;3.34;100.00;99885.00;5089480;28;20039;-84
2021/12/04 01:35:34;;;;;;;12.30;10.18;;;;;;;3.36;100.00;99879.72;5088274;28;20024;-84
2021/12/04 01:38:00;;;;;;;11.43;9.80;;;;;;;3.35;100.00;99872.84;5089033;28;20486;-85
2021/12/04 01:40:27;;;;;;;12.00;10.07;;;;;;;3.34;100.00;99876.38;5087867;28;20031;-85
2021/12/04 01:42:52;;;;;;;10.73;9.63;;;;;;;3.35;100.00;99878.06;5088710;28;20028;-83
2021/12/04 01:45:19;;;;;;;14.10;10.07;;;;;;;3.39;100.00;99887.34;5087416;28;20089;-85
2021/12/04 01:47:45;;;;;;;11.25;9.75;;;;;;;3.38;100.00;99885.66;5082781;28;20523;-85
2021/12/04 01:50:14;;;;;;;11.57;10.05;;;;;;;3.37;100.00;99876.19;5089532;28;20123;-85
2021/12/04 01:52:40;;;;;;;11.57;10.38;;;;;;;3.37;100.00;99878.78;5093162;28;20063;-85
2021/12/04 01:55:07;;;;;;;13.02;10.55;;;;;;;3.38;100.00;99873.50;5091885;28;20063;-85
2021/12/04 01:57:32;;;;;;;13.60;10.60;;;;;;;3.37;100.00;99877.03;5092009;28;20042;-85
2021/12/04 01:59:57;;;;;;;12.65;10.02;;;;;;;3.41;100.00;99877.69;5092782;28;20027;-85
2021/12/04 02:02:23;;;;;;;13.50;10.65;;;;;;;3.40;100.00;99876.00;5091492;28;20035;-85
2021/12/04 02:04:49;;;;;;;13.45;10.20;;;;;;;3.38;100.00;99875.25;5085379;28;20020;-85
2021/12/04 02:07:16;;;;;;;12.02;10.65;;;;;;;3.39;100.00;99874.34;5072537;28;20034;-85
2021/12/04 02:09:44;;;;;;;11.30;10.20;;;;;;;3.42;100.00;99874.97;5072409;28;20392;-84
2021/12/04 02:12:10;;;;;;;11.45;10.25;;;;;;;3.42;100.00;99863.75;5070150;28;20051;-85
2021/12/04 02:14:38;;;;;;;12.82;10.73;;;;;;;3.43;100.00;99857.63;5108228;28;20379;-85
2021/12/04 02:17:04;;;;;;;12.80;11.25;;;;;;;3.41;100.00;99841.28;5112139;28;20026;-85
2021/12/04 02:19:31;;;;;;;14.90;11.75;;;;;;;3.40;100.00;99829.22;5093618;28;20023;-85
2021/12/04 02:21:57;;;;;;;14.00;11.43;;;;;;;3.43;100.00;99835.06;5091967;28;20028;-85
2021/12/04 02:24:23;;;;;;;15.07;12.27;;;;;;;3.42;100.00;99827.34;5085073;28;20016;-84
2021/12/04 02:26:49;;;;;;;13.50;12.10;;;;;;;3.42;100.00;99816.94;5091884;28;20028;-84
2021/12/04 02:29:14;;;;;;;14.65;11.95;;;;;;;3.45;100.00;99833.19;5090415;28;20036;-85
2021/12/04 02:31:48;;;;;;;15.57;12.57;;;;;;;3.45;100.00;99821.97;5089895;28;20102;-85
2021/12/04 02:34:26;;;;;;;14.30;12.60;;;;;;;3.42;100.00;99806.56;5091903;28;20031;-85
2021/12/04 02:36:51;;;;;;;14.27;12.55;;;;;;;3.43;100.00;99808.22;5091599;28;20027;-85
2021/12/04 02:39:31;;;;;;;13.27;11.80;;;;;;;3.44;100.00;99807.28;5088412;28;20032;-85
2021/12/04 02:41:57;;;;;;;15.82;12.32;;;;;;;3.45;100.00;99801.16;5072065;28;20013;-85
2021/12/04 02:44:32;;;;;;;13.85;12.13;;;;;;;3.42;100.00;99798.75;5071536;28;20453;-85
2021/12/04 02:46:57;;;;;;;15.70;12.43;;;;;;;3.40;100.00;99793.66;5071726;28;20066;-85
2021/12/04 02:49:23;;;;;;;14.30;11.82;;;;;;;3.41;100.00;99795.31;5090724;28;20052;-84
2021/12/04 02:51:48;;;;;;;13.82;11.80;;;;;;;3.42;100.00;99790.94;5091433;28;20391;-85
2021/12/04 02:54:13;;;;;;;15.85;11.70;;;;;;;3.42;100.00;99798.75;5090902;28;20027;-85
2021/12/04 02:56:45;;;;;;;13.98;11.90;;;;;;;3.42;100.00;99807.38;5090581;28;20024;-84
2021/12/04 02:59:14;;;;;;;14.50;11.75;;;;;;;3.42;100.00;99801.34;5081516;28;20054;-85
2021/12/04 03:01:40;;;;;;;15.20;11.63;;;;;;;3.41;100.00;99802.28;5078108;28;20016;-85
2021/12/04 03:04:14;;;;;;;12.93;11.55;;;;;;;3.42;100.00;99801.34;5090883;28;20028;-85
2021/12/04 03:06:46;;;;;;;13.18;11.50;;;;;;;3.43;100.00;99800.41;5089714;28;20078;-85
2021/12/04 03:09:12;;;;;;;;;;;;;;;3.47;100.00;99800.13;5091566;28;20024;-84
2021/12/04 03:11:38;;;;;;;12.77;10.88;;;;;;;3.42;100.00;99794.38;5092163;28;19939;-84
2021/12/04 03:14:04;;;;;;;13.75;11.57;;;;;;;3.40;100.00;99782.41;5103043;28;20483;-84
2021/12/04 03:16:30;;;;;;;14.05;11.82;;;;;;;3.36;100.00;99781.75;5088342;28;20024;-84
2021/12/04 03:18:56;;;;;;;14.15;11.45;;;;;;;3.42;100.00;99780.56;5090840;28;20024;-84
2021/12/04 03:21:21;;;;;;;13.45;11.88;;;;;;;3.42;100.00;99781.38;5090324;28;20039;-84
2021/12/04 03:23:57;;;;;;;13.38;11.98;;;;;;;3.37;100.00;99767.00;5090963;28;20024;-84
2021/12/04 03:26:23;;;;;;;14.65;11.93;;;;;;;3.42;100.00;99783.16;5090886;28;20020;-84
2021/12/04 03:28:50;;;;;;;12.75;11.05;;;;;;;3.39;100.00;99768.56;5090142;28;20085;-84
2021/12/04 03:31:38;;;;;;;13.50;11.60;;;;;;;3.41;100.00;99766.72;5086504;28;20041;-84
2021/12/04 03:42:17;;;;;;;11.52;10.35;;;;;;;3.38;100.00;99759.09;5069455;28;20546;-84
2021/12/04 03:44:43;;;;;;;12.95;10.43;;;;;;;3.35;100.00;99758.47;5070004;28;20017;-85
2021/12/04 03:47:09;;;;;;;11.20;10.02;;;;;;;3.36;100.00;99752.34;5070133;28;20391;-84
2021/12/04 03:49:35;;;;;;;12.23;9.65;;;;;;;3.35;100.00;99743.69;5081405;28;20032;-83
2021/12/04 03:52:01;;;;;;;11.48;10.00;;;;;;;3.37;100.00;99754.00;5072010;28;20053;-84
2021/12/04 03:54:26;;;;;;;11.57;9.60;;;;;;;3.40;100.00;99748.63;5090138;28;20090;-84
2021/12/04 03:57:02;;;;;;;10.60;9.50;;;;;;;3.38;100.00;99737.47;5089292;28;20028;-84
2021/12/04 03:59:28;;;;;;;11.13;9.40;;;;;;;3.38;100.00;99743.50;5089884;28;20020;-84
2021/12/04 04:01:53;;;;;;;10.30;9.20;;;;;;;3.35;100.00;99740.28;5090314;28;20184;-83
2021/12/04 04:04:18;;;;;;;9.27;8.30;;;;;;;3.41;100.00;99752.88;5089504;28;20031;-85
2021/12/04 04:06:44;;;;;;;10.68;9.23;;;;;;;3.40;100.00;99751.22;5087334;28;20035;-84
2021/12/04 04:09:09;;;;;;;9.95;8.95;;;;;;;3.40;100.00;99741.66;5070165;28;20059;-84
2021/12/04 04:11:36;;;;;;;9.45;8.52;;;;;;;3.41;100.00;99742.47;5069342;28;20387;-84
2021/12/04 04:14:05;;;;;;;8.90;8.00;;;;;;;3.37;100.00;99735.81;5101789;28;20031;-85
2021/12/04 04:16:31;;;;;;;8.90;8.00;;;;;;;3.41;100.00;99732.91;5109021;28;20043;-84
2021/12/04 04:18:56;;;;;;;8.75;7.85;;;;;;;3.38;100.00;99730.50;5089141;28;20734;-84
2021/12/04 04:21:21;;;;;;;10.15;8.10;;;;;;;3.39;100.00;99734.78;5089915;28;20103;-84
2021/12/04 04:23:47;;;;;;;9.77;8.18;;;;;;;3.41;100.00;99721.69;5088488;28;20069;-84
2021/12/04 04:26:12;;;;;;;8.70;7.85;;;;;;;3.42;100.00;99723.34;5083443;28;20024;-84
2021/12/04 04:28:38;;;;;;;8.73;7.78;;;;;;;3.37;100.00;99717.59;5090257;28;20028;-84
2021/12/04 04:31:04;;;;;;;8.68;7.40;;;;;;;3.38;100.00;99721.88;5088885;28;20059;-84
2021/12/04 04:33:36;;;;;;;9.40;7.05;;;;;;;3.37;100.00;99715.84;5089895;28;20044;-84
2021/12/04 04:36:55;;;;;;;8.57;6.95;;;;;;;3.42;100.00;99710.34;5089704;28;20101;-84
2021/12/04 05:00:57;;;;;;;9.32;6.80;;;;;;;3.42;100.00;99705.16;5069632;28;20515;-84
2021/12/04 05:11:21;;;;;;;6.60;5.72;;;;;;;3.45;100.00;99702.34;5092830;28;20047;-84
2021/12/04 05:13:46;;;;;;;6.38;5.78;;;;;;;3.49;100.00;99693.44;5096674;28;20494;-84
2021/12/04 05:16:16;;;;;;;7.10;5.57;;;;;;;3.47;100.00;99684.91;5078210;28;20031;-84
2021/12/04 05:21:37;;;;;;;5.75;5.15;;;;;;;3.50;100.00;99679.50;5088038;28;20514;-84
2021/12/04 05:24:02;;;;;;;5.63;5.10;;;;;;;3.50;100.00;99683.88;5089447;28;20052;-84
2021/12/04 05:26:29;;;;;;;7.45;4.95;;;;;;;3.51;100.00;99691.56;5093433;28;20060;-84
2021/12/04 05:29:00;;;;;;;5.60;4.95;;;;;;;3.47;100.00;99679.69;5092526;28;20028;-84
2021/12/04 05:31:27;;;;;;;5.40;4.80;;;;;;;3.49;100.00;99685.63;5086066;28;20052;-84
2021/12/04 05:33:53;;;;;;;6.43;5.10;;;;;;;3.49;100.00;99688.22;5088619;28;20275;-84
2021/12/04 05:36:20;;;;;;;6.18;5.03;;;;;;;3.46;100.00;99685.81;5072194;28;20468;-84
2021/12/04 05:38:45;;;;;;;5.78;5.03;;;;;;;3.44;100.00;99685.09;5072877;28;20468;-84
2021/12/04 05:41:16;;;;;;;5.22;4.72;;;;;;;3.47;100.00;99690.94;5072343;28;20033;-83
2021/12/04 05:43:41;;;;;;;5.80;5.18;;;;;;;3.46;100.00;99684.06;5072767;28;20025;-84
2021/12/04 05:48:51;;;;;;;5.10;4.53;;;;;;;3.47;100.00;99675.31;5089595;28;20533;-84
2021/12/04 05:51:26;;;;;;;5.38;4.70;;;;;;;3.50;100.00;99683.88;5090607;28;20070;-83
2021/12/04 05:56:19;;;;;;;5.63;4.25;;;;;;;3.52;100.00;99676.78;5092315;28;20028;-84
2021/12/04 05:58:46;;;;;;;5.38;4.38;;;;;;;3.51;100.00;99675.97;5092571;28;20023;-84
2021/12/04 06:01:16;;;;;;;5.03;4.53;;;;;;;3.51;100.00;99678.56;5091357;28;20092;-84
2021/12/04 06:03:44;;;;;;;5.95;4.68;;;;;;;3.52;100.00;99682.00;5091153;28;20047;-84
2021/12/04 06:06:10;;;;;;;5.78;4.65;;;;;;;3.45;100.00;99666.78;5090384;28;20107;-84
2021/12/04 06:08:36;;;;;;;6.32;4.72;;;;;;;3.49;100.00;99667.44;5075518;28;20107;-84
2021/12/04 06:11:02;;;;;;;6.55;4.95;;;;;;;3.50;100.00;99666.50;5070963;28;20838;-84
2021/12/04 06:13:27;;;;;;;4.93;4.40;;;;;;;3.51;100.00;99668.16;5089159;28;20028;-84
2021/12/04 06:15:53;;;;;;;5.53;5.00;;;;;;;3.54;100.00;99665.38;5098148;28;20019;-84
2021/12/04 06:18:21;;;;;;;5.20;4.60;;;;;;;3.53;100.00;99652.47;5091195;28;20028;-83
2021/12/04 06:23:32;;;;;;;5.47;4.97;;;;;;;3.47;100.00;99653.69;5088131;28;20056;-84
2021/12/04 06:25:58;;;;;;;5.43;4.88;;;;;;;3.47;100.00;99654.53;5088201;28;20111;-84
2021/12/04 06:28:23;;;;;;;5.75;4.95;;;;;;;3.55;100.00;99664.44;5091750;28;20106;-84
2021/12/04 06:30:49;;;;;;;5.38;4.88;;;;;;;3.54;100.00;99659.34;5090481;28;20083;-84
2021/12/04 06:33:18;;;;;;;6.65;5.30;;;;;;;3.51;100.00;99665.56;5091747;28;20131;-83
2021/12/04 06:35:43;;;;;;;5.60;5.00;;;;;;;3.55;100.00;99667.03;5089420;28;20024;-84
2021/12/04 06:38:10;;;;;;;5.68;4.85;;;;;;;3.47;100.00;99664.94;5091109;28;20432;-84
2021/12/04 06:40:37;;;;;;;5.43;4.82;;;;;;;3.55;100.00;99672.22;5100925;28;20023;-84
2021/12/04 06:43:05;;;;;;;5.47;4.88;;;;;;;3.54;100.00;99670.56;5083810;28;20027;-85
2021/12/04 06:45:33;;;;;;;5.30;4.78;;;;;;;3.48;100.00;99665.75;5090498;28;20020;-84
2021/12/04 06:48:06;;;;;;;6.10;5.20;;;;;;;3.52;100.00;99672.44;5091278;28;20035;-83
2021/12/04 06:53:05;;;;;;;6.38;4.90;;;;;;;3.55;100.00;99668.81;5089656;28;20098;-84
2021/12/04 06:55:38;;;;;;;7.13;5.10;;;;;;;3.52;100.00;99667.22;5091485;28;20082;-84
2021/12/04 06:58:03;;;;;;;8.00;4.90;;;;;;;3.57;100.00;99680.78;5086676;28;20047;-84
2021/12/04 07:00:30;;;;;;;7.18;5.13;;;;;;;3.60;100.00;99684.94;5090564;28;20054;-84
2021/12/04 07:02:55;;;;;;;5.85;5.20;;;;;;;3.53;100.00;99668.06;5090197;28;20012;-84
2021/12/04 07:05:21;;;;;;;6.35;5.35;;;;;;;3.60;100.00;99674.53;5091261;28;20630;-84
2021/12/04 07:07:46;;;;;;;6.18;5.03;;;;;;;3.56;100.00;99670.47;5090224;28;20028;-84
2021/12/04 07:10:14;;;;;;;6.13;5.18;;;;;;;3.60;100.00;99680.59;5091191;28;20437;-83
2021/12/04 07:12:40;;;;;;;6.22;5.15;;;;;;;3.61;100.00;99677.06;5092370;28;20024;-84
2021/12/04 07:15:06;;;;;;;5.97;5.03;;;;;;;3.58;100.00;99673.81;5090011;28;20491;-84
2021/12/04 07:17:34;;;;;;;7.03;5.68;;;;;;;3.57;100.00;99667.75;5090760;28;20345;-84
2021/12/04 07:19:59;;;;;;;8.20;5.40;;;;;;;3.57;100.00;99664.34;5090343;28;20031;-83
2021/12/04 07:22:25;;;;;;;7.13;5.40;;;;;;;3.62;100.00;99676.13;5090528;28;20028;-84
2021/12/04 07:24:50;;;;;;;6.40;5.50;;;;;;;3.63;100.00;99672.59;5090282;28;20020;-84
2021/12/04 07:27:17;;;;;;;7.22;5.65;;;;;;;3.63;100.00;99670.00;5089907;28;20102;-84
2021/12/04 07:29:42;;;;;;;7.55;5.60;;;;;;;3.62;100.00;99668.34;5076875;28;20050;-84
2021/12/04 07:32:08;;;;;;;8.23;5.60;;;;;;;3.64;100.00;99669.06;5080163;28;20131;-84
2021/12/04 07:34:33;;;;;;;7.15;5.47;;;;;;;3.60;100.00;99664.13;5089502;28;20387;-84
2021/12/04 07:36:59;;;;;;;6.75;5.40;;;;;;;3.62;100.00;99657.94;5090374;28;20034;-83
2021/12/04 07:39:24;;;;;;;7.95;5.45;;;;;;;3.61;100.00;99661.47;5090036;28;20098;-84
2021/12/04 07:41:49;;;;;;;7.57;5.70;;;;;;;3.64;100.00;99661.28;5083519;28;20020;-84
2021/12/04 07:44:15;;;;;;;6.78;5.63;;;;;;;3.63;100.00;99649.19;5088117;28;20553;-84
2021/12/04 07:46:41;;;;;;;7.43;5.50;;;;;;;3.68;100.00;99660.13;5088265;28;20043;-84
2021/12/04 07:49:06;;;;;;;6.53;5.15;;;;;;;3.70;100.00;99660.03;5081763;28;20020;-84
2021/12/04 07:51:32;;;;;;;7.18;5.57;;;;;;;3.70;100.00;99654.81;5090195;28;20038;-84
2021/12/04 07:53:58;;;;;;;7.63;5.20;;;;;;;3.69;100.00;99661.81;5090424;28;20085;-84
2021/12/04 07:56:23;;;;;;;7.00;5.07;;;;;;;3.69;100.00;99659.19;5089199;28;20031;-84
2021/12/04 07:58:50;;;;;;;6.05;4.97;;;;;;;3.67;100.00;99650.66;5089454;28;20016;-84
2021/12/04 08:01:16;;;;;;;7.00;5.43;;;;;;;3.67;100.00;99642.03;5090577;28;20024;-84
2021/12/04 08:03:41;;;;;;;7.38;5.30;;;;;;;3.69;100.00;99648.78;5071367;28;20077;-84
2021/12/04 08:06:07;;;;;;;6.90;5.25;;;;;;;3.71;100.00;99640.88;5071199;28;20025;-84
2021/12/04 08:08:33;;;;;;;7.25;5.28;;;;;;;3.68;100.00;99636.72;5070482;28;20043;-84
2021/12/04 08:10:59;;;;;;;6.60;5.38;;;;;;;3.67;100.00;99640.25;5069767;28;20060;-84
2021/12/04 08:13:24;;;;;;;7.57;5.10;;;;;;;3.72;100.00;99642.56;5097677;28;20479;-84
2021/12/04 08:15:50;;;;;;;7.53;5.38;;;;;;;3.74;100.00;99628.50;5108955;28;20077;-84
2021/12/04 08:18:15;;;;;;;6.85;5.75;;;;;;;3.73;100.00;99629.44;5110865;28;20045;-84
2021/12/04 08:20:40;;;;;;;8.27;5.85;;;;;;;3.78;100.00;99627.38;5101010;28;20017;-83
2021/12/04 08:23:06;;;;;;;7.65;5.50;;;;;;;3.74;100.00;99607.72;5067894;28;20472;-83
2021/12/04 08:25:32;;;;;;;7.78;5.60;;;;;;;3.78;100.00;99610.94;5070016;28;20028;-84
2021/12/04 08:27:59;;;;;;;7.18;5.13;;;;;;;3.83;100.00;99610.63;5070220;28;20028;-84
2021/12/04 08:30:27;;;;;;;8.73;5.82;;;;;;;3.82;100.00;99606.38;5078736;28;20047;-84
2021/12/04 08:32:56;;;;;;;8.95;6.10;;;;;;;3.82;100.00;99598.56;5088874;28;20028;-84
2021/12/04 08:35:24;;;;;;;7.93;6.03;;;;;;;3.85;100.00;99595.75;5090006;28;20480;-83
2021/12/04 08:37:51;;;;;;;8.35;5.80;;;;;;;3.85;100.00;99595.75;5085024;28;20050;-83
2021/12/04 08:40:16;;;;;;;8.55;5.90;;;;;;;3.90;100.00;99602.31;5069481;28;20028;-84
2021/12/04 08:42:45;;;;;;;10.30;6.25;;;;;;;3.91;100.00;99595.34;5085000;28;20488;-84
2021/12/04 08:45:15;;;;;;;9.07;6.25;;;;;;;3.88;100.00;99595.53;5081200;28;20023;-84
2021/12/04 08:47:44;;;;;;;9.15;6.15;;;;;;;3.86;100.00;99587.84;5088632;28;20119;-82
2021/12/04 08:50:16;;;;;;;9.30;5.80;;;;;;;3.91;100.00;99579.72;5069535;28;20425;-82
2021/12/04 08:52:45;;;;;;;6.83;6.13;;;;;;;3.94;100.00;99575.16;5068639;28;20067;-83
2021/12/04 08:55:12;;;;;;;6.95;5.82;;;;;;;3.95;100.00;99570.78;5068055;28;20362;-84
2021/12/04 08:57:38;;;;;;;8.23;6.32;;;;;;;3.92;100.00;99560.56;5083178;28;20078;-84
2021/12/04 09:00:10;;;;;;;6.90;6.03;;;;;;;3.93;100.00;99570.88;5090211;28;20475;-84
2021/12/04 09:02:36;;;;;;;6.85;5.65;;;;;;;3.93;100.00;99576.09;5093346;28;20077;-88
2021/12/04 09:05:02;;;;;;;6.97;5.63;;;;;;;4.02;100.00;99587.69;5092083;28;20048;-87
2021/12/04 09:07:28;;;;;;;6.53;5.25;;;;;;;3.99;100.00;99580.03;5093799;28;20028;-86
2021/12/04 09:09:55;;;;;;;7.13;5.68;;;;;;;3.98;100.00;99580.97;5093551;28;20031;-87
2021/12/04 09:12:22;;;;;;;8.63;5.57;;;;;;;4.03;100.00;99584.97;5093163;28;20024;-87
2021/12/04 09:14:49;;;;;;;6.97;5.75;;;;;;;4.02;100.00;99577.25;5113886;28;20027;-87
2021/12/04 09:17:17;;;;;;;9.23;6.03;;;;;;;4.06;100.00;99579.56;5114554;28;20041;-89
2021/12/04 09:19:45;;;;;;;6.47;5.47;;;;;;;4.06;100.00;99570.91;5115072;28;20356;-87
2021/12/04 09:22:24;;;;;;;6.80;5.95;;;;;;;4.02;100.00;99556.44;5114822;28;20019;-88
2021/12/04 09:24:54;;;;;;;8.57;6.50;;;;;;;4.11;100.00;99555.81;5108492;28;20012;-88
2021/12/04 10:02:15;;;;;;;13.73;9.65;;;;;;;4.33;100.00;99548.19;5090612;28;20051;-84
2021/12/04 10:15:35;;;;;;;14.50;9.48;;;;;;;4.28;100.00;99532.06;5091927;28;20039;-84
2021/12/04 10:33:58;;;;;;;16.33;9.60;;;;;;;4.38;100.00;99506.19;5091808;28;20058;-85
2021/12/04 10:36:32;;;;;;;14.57;9.68;;;;;;;4.35;100.00;99490.78;5071672;28;20032;-84
2021/12/04 10:38:58;;;;;;;15.50;9.50;;;;;;;4.35;100.00;99493.41;5088009;28;20031;-84
2021/12/04 10:41:32;;;;;;;13.45;8.93;;;;;;;4.35;100.00;99485.59;5086504;28;20548;-84
2021/12/04 10:44:22;;;;;;;13.82;9.18;;;;;;;4.43;100.00;99488.50;5091166;28;20106;-85
2021/12/04 10:47:07;;;;;;;12.70;8.55;;;;;;;4.36;100.00;99480.28;5091533;28;20028;-82
2021/12/04 10:50:07;;;;;;;12.80;8.45;;;;;;;4.43;100.00;99488.50;5091360;28;20020;-82
2021/12/04 10:55:29;;;;;;;11.65;9.13;;;;;;;4.40;100.00;99468.72;5091533;28;20035;-84
2021/12/04 10:58:45;;;;;;;13.93;9.23;;;;;;;4.46;100.00;99461.41;5088747;28;20440;-84
2021/12/04 11:01:08;;;;;;;11.30;8.43;;;;;;;4.46;100.00;99458.81;5090879;28;20539;-83
2021/12/04 11:03:38;;;;;;;11.90;9.52;;;;;;;4.40;100.00;99432.28;5091462;28;20043;-85
2021/12/04 11:20:03;;;;;;;12.20;9.63;;;;;;;4.58;100.00;99418.88;5090725;28;20039;-85
2021/12/04 11:41:21;;;;;;;12.35;8.85;;;;;;;4.82;100.00;99414.50;5074662;28;20044;-84
2021/12/04 11:43:53;;;;;;;9.90;8.80;;;;;;;4.84;100.00;99419.59;5085289;28;20392;-85
2021/12/04 11:46:23;;;;;;;11.85;9.38;;;;;;;4.84;100.00;99416.97;5068232;28;20104;-85
2021/12/04 11:48:49;;;;;;;10.30;9.15;;;;;;;4.83;100.00;99407.50;5081158;28;20020;-85
2021/12/04 11:51:22;;;;;;;12.40;9.50;;;;;;;4.84;100.00;99403.94;5088409;28;20551;-85
2021/12/04 11:53:49;;;;;;;11.13;9.23;;;;;;;4.78;100.00;99392.19;5080419;28;20024;-85
2021/12/04 11:56:32;;;;;;;11.65;9.75;;;;;;;4.81;100.00;99391.97;5088075;28;20024;-85
2021/12/04 11:58:57;;;;;;;11.60;9.68;;;;;;;4.84;100.00;99394.38;5089209;28;20024;-85
2021/12/04 12:01:28;;;;;;;10.80;9.63;;;;;;;4.83;100.00;99387.50;5088637;28;20035;-85
2021/12/04 12:03:56;;;;;;;11.57;10.15;;;;;;;4.86;100.00;99389.03;5090460;28;20085;-86
2021/12/04 12:06:32;;;;;;;12.90;10.02;;;;;;;4.85;100.00;99385.59;5088502;28;20024;-85
2021/12/04 12:09:05;;;;;;;11.38;9.68;;;;;;;4.86;100.00;99387.25;5080435;28;20094;-84
2021/12/04 12:11:31;;;;;;;11.07;9.65;;;;;;;4.84;100.00;99388.31;5086630;28;20024;-85
2021/12/04 12:14:07;;;;;;;16.08;10.30;;;;;;;4.84;100.00;99389.16;5103052;28;20028;-85
2021/12/04 12:16:39;;;;;;;12.85;10.30;;;;;;;4.84;100.00;99389.16;5102957;28;20069;-80
2021/12/04 12:19:15;;;;;;;10.35;9.25;;;;;;;4.80;100.00;99376.44;5088246;28;20423;-80
2021/12/04 12:21:47;;;;;;;11.07;9.50;;;;;;;4.84;100.00;99376.13;5080500;28;20024;-81
2021/12/04 12:33:22;;;;;;;24.73;22.05;;;;;;;4.82;100.00;99370.19;5069511;28;20047;-87
2021/12/04 12:36:05;;;;;;;24.50;21.73;;;;;;;4.85;100.00;99374.34;5072878;28;20499;-86
2021/12/04 12:39:13;;;;;;;16.77;12.15;;;;;;;4.89;100.00;99387.03;5069617;28;20443;-86
2021/12/04 12:41:40;;;;;;;39.38;35.13;;;;;;;4.88;100.00;99389.75;5084371;28;20081;-86
2021/12/04 12:44:05;;;;;;;21.50;18.00;;;;;;;4.87;100.00;99393.31;5088959;28;20047;-86
2021/12/04 12:46:38;;;;;;;1173.88;530.78;;;;;;;4.86;100.00;99395.06;5089458;28;20190;-87
2021/12/04 12:49:15;;;;;;;44.95;30.45;;;;;;;4.85;100.00;99390.81;5077328;28;20024;-87
2021/12/04 12:51:44;;;;;;;27.92;21.15;;;;;;;4.84;100.00;99383.94;5085664;28;20032;-83
2021/12/04 12:54:09;;;;;;;28.20;20.23;;;;;;;4.79;100.00;99373.00;5087766;28;20013;-83
2021/12/04 12:56:37;;;;;;;31.80;22.67;;;;;;;4.81;100.00;99380.72;5079684;28;20024;-84
2021/12/04 13:13:28;;;;;;;28.08;22.17;;;;;;;4.88;100.00;99364.53;5084966;28;20138;-84
2021/12/04 13:16:00;;;;;;;28.63;21.35;;;;;;;4.86;100.00;99360.38;5085696;28;20027;-84
2021/12/04 13:18:26;;;;;;;28.35;20.00;;;;;;;4.90;100.00;99367.84;5068644;28;20644;-84
2021/12/04 13:20:58;;;;;;;24.17;17.20;;;;;;;4.83;100.00;99355.38;5086491;28;20012;-84
2021/12/04 13:23:24;;;;;;;23.23;17.77;;;;;;;4.85;100.00;99356.09;5079323;28;20047;-83
2021/12/04 13:26:17;;;;;;;19.65;16.40;;;;;;;4.92;100.00;99365.97;5087318;28;20103;-85
2021/12/04 13:28:49;;;;;;;20.13;16.75;;;;;;;4.85;100.00;99354.34;5090443;28;20032;-83
2021/12/04 13:31:18;;;;;;;20.20;16.87;;;;;;;4.93;100.00;99362.41;5087198;28;20043;-84
2021/12/04 13:33:48;;;;;;;20.10;16.67;;;;;;;4.90;100.00;99352.22;5087993;28;20024;-84
2021/12/04 13:36:20;;;;;;;18.48;14.70;;;;;;;4.93;100.00;99351.97;5088524;28;20051;-84
2021/12/04 13:38:45;;;;;;;19.00;14.50;;;;;;;4.96;100.00;99362.19;5088505;28;20378;-84
2021/12/04 13:41:14;;;;;;;17.65;14.75;;;;;;;4.97;100.00;99369.03;5086921;28;20103;-84
2021/12/04 13:43:40;;;;;;;17.85;14.48;;;;;;;4.92;100.00;99354.69;5086526;28;20016;-84
2021/12/04 13:46:06;;;;;;;18.92;14.43;;;;;;;4.92;100.00;99350.31;5089234;28;20031;-84
2021/12/04 13:48:33;;;;;;;18.52;14.60;;;;;;;4.91;100.00;99343.44;5092060;28;20394;-84
2021/12/04 13:50:59;;;;;;;20.80;14.73;;;;;;;4.98;100.00;99356.84;5091128;28;20110;-84
2021/12/04 13:53:43;;;;;;;18.25;14.90;;;;;;;4.98;100.00;99355.06;5090412;28;20018;-84
2021/12/04 13:56:18;;;;;;;20.00;14.90;;;;;;;5.00;100.00;99368.81;5092860;28;20433;-84
2021/12/04 13:58:56;;;;;;;20.27;15.88;;;;;;;4.98;100.00;99360.28;5092399;28;20430;-85
2021/12/04 14:01:23;;;;;;;20.35;15.45;;;;;;;4.98;100.00;99360.28;5091446;28;20031;-84
2021/12/04 14:03:53;;;;;;;20.60;15.77;;;;;;;5.01;100.00;99352.22;5083628;28;20070;-84
2021/12/04 14:06:19;;;;;;;21.58;17.30;;;;;;;4.99;100.00;99351.50;5090883;28;20028;-84
2021/12/04 14:08:59;;;;;;;236.50;149.38;;;;;;;5.02;100.00;99359.09;5090230;28;20110;-84
2021/12/04 14:11:32;;;;;;;168.90;113.97;;;;;;;4.97;100.00;99353.41;5090498;28;20421;-83
2021/12/04 14:13:58;;;;;;;194.88;127.53;;;;;;;4.97;100.00;99348.19;5090393;28;20125;-83
2021/12/04 14:16:25;;;;;;;47.42;32.25;;;;;;;5.00;100.00;99357.56;5070806;28;20016;-84
2021/12/04 14:18:51;;;;;;;180.00;96.95;;;;;;;5.01;100.00;99370.47;5071062;28;20070;-83
2021/12/04 14:21:17;;;;;;;66.03;33.47;;;;;;;5.02;100.00;99361.72;5078222;28;20020;-84
2021/12/04 14:23:47;;;;;;;49.55;29.02;;;;;;;5.01;100.00;99361.81;5076629;28;20046;-84
2021/12/04 14:26:15;;;;;;;156.00;68.78;;;;;;;5.06;100.00;99377.13;5090315;28;20119;-84
2021/12/04 14:28:45;;;;;;;49.30;25.80;;;;;;;4.98;100.00;99368.09;5089913;28;20024;-83
2021/12/04 14:31:12;;;;;;;25.55;15.48;;;;;;;5.04;100.00;99385.06;5090689;28;20116;-84